Time;durP1;ratioP1;P1;durP2;ratioP2;P2;SDS_P1;SDS_P2;PMS_P1;PMS_P2;Temp;Humidity;BMP_temperature;BMP_pressure;BME280_temperature;BME280_humidity;BME280_pressure;Samples;Min_cycle;Max_cycle;Signal;HPM_P1;HPM_P2
2023/06/17 08:34:22;;;;;;;2.33;2.12;;;;;;;18.25;91.75;99873.63;1501300;85;26137;-80
2023/06/17 08:36:55;;;;;;;5.62;2.00;;;;;;;18.33;92.01;99884.64;1485518;88;22878;-81
2023/06/17 08:39:21;;;;;;;4.67;2.05;;;;;;;18.46;90.90;99889.93;1476324;88;21437;-81
2023/06/17 08:41:48;;;;;;;2.67;2.20;;;;;;;18.68;92.12;99890.46;1463402;88;22410;-79
2023/06/17 08:44:15;;;;;;;3.25;2.12;;;;;;;18.86;91.24;99888.95;1470137;87;21434;-81
2023/06/17 08:46:46;;;;;;;3.80;2.20;;;;;;;18.94;89.21;99889.53;1481457;87;21390;-82
2023/06/17 08:49:13;;;;;;;5.95;2.45;;;;;;;19.01;89.08;99887.32;1468679;87;21389;-79
2023/06/17 08:51:40;;;;;;;3.47;2.70;;;;;;;18.93;87.73;99890.58;1449204;89;21582;-82
2023/06/17 08:54:08;;;;;;;2.45;2.17;;;;;;;18.86;88.18;99895.14;1441179;89;21707;-82
2023/06/17 08:56:35;;;;;;;6.33;2.40;;;;;;;18.86;89.11;99895.14;1463410;89;21382;-81
2023/06/17 08:59:02;;;;;;;4.33;2.37;;;;;;;18.88;89.68;99898.44;1467292;89;21671;-83
2023/06/17 09:01:28;;;;;;;3.62;2.22;;;;;;;18.78;88.76;99900.74;1464411;89;21419;-82
2023/06/17 09:03:55;;;;;;;2.52;2.20;;;;;;;18.76;89.55;99903.33;1464207;89;22432;-82
2023/06/17 09:06:25;;;;;;;5.03;2.37;;;;;;;18.75;90.68;99899.83;1460903;89;21604;-81
2023/06/17 09:08:53;;;;;;;3.17;1.87;;;;;;;18.62;88.90;99898.55;1459639;89;22440;-80
2023/06/17 09:11:28;;;;;;;7.22;2.60;;;;;;;18.51;90.19;99896.00;1470955;89;21708;-82
2023/06/17 09:13:57;;;;;;;6.22;2.62;;;;;;;18.41;91.64;99897.80;1465099;89;21500;-82
2023/06/17 09:16:35;;;;;;;2.42;2.05;;;;;;;18.33;90.58;99894.54;1454115;89;22655;-81
2023/06/17 09:19:08;;;;;;;2.30;2.00;;;;;;;18.31;91.15;99900.61;1445654;89;21612;-81
2023/06/17 09:21:36;;;;;;;6.47;2.20;;;;;;;18.28;92.18;99897.84;1466247;89;22380;-83
2023/06/17 09:24:06;;;;;;;3.77;2.40;;;;;;;18.25;92.33;99900.41;1452192;89;21685;-82
2023/06/17 09:26:37;;;;;;;2.42;1.80;;;;;;;18.26;92.75;99898.03;1468739;89;21551;-82
2023/06/17 09:29:09;;;;;;;2.30;1.90;;;;;;;18.25;92.67;99893.72;1430341;89;21655;-81
2023/06/17 09:31:53;;;;;;;2.40;2.20;;;;;;;18.23;91.34;99892.28;1441145;89;21434;-82
2023/06/17 09:34:21;;;;;;;3.62;2.35;;;;;;;18.37;91.92;99897.09;1414232;90;22413;-80
2023/06/17 09:37:03;;;;;;;3.55;2.42;;;;;;;18.51;92.35;99903.23;1431754;91;21481;-79
2023/06/17 09:39:33;;;;;;;3.30;1.90;;;;;;;18.70;92.41;99906.31;1510436;91;21489;-84
2023/06/17 09:42:10;;;;;;;4.55;2.60;;;;;;;18.77;90.32;99905.00;1361956;90;21342;-82
2023/06/17 09:44:41;;;;;;;4.50;3.00;;;;;;;18.81;89.94;99909.70;1361030;91;21416;-81
2023/06/17 09:47:08;;;;;;;3.05;2.05;;;;;;;19.14;89.91;99905.50;1367369;91;21475;-82
2023/06/17 09:49:36;;;;;;;2.58;1.95;;;;;;;19.14;89.91;99905.50;1489819;91;21614;-82
2023/06/17 09:52:05;;;;;;;2.52;2.22;;;;;;;19.08;88.53;99894.83;1436121;90;21467;-82
2023/06/17 09:54:33;;;;;;;3.10;2.07;;;;;;;19.08;88.53;99894.83;1434957;90;21636;-83
2023/06/17 09:57:03;;;;;;;4.72;2.22;;;;;;;19.30;88.25;99918.08;1431961;91;22398;-83
2023/06/17 09:59:31;;;;;;;3.62;2.10;;;;;;;19.30;88.25;99918.08;1409570;91;22005;-80
2023/06/17 10:01:59;;;;;;;4.83;2.10;;;;;;;19.42;88.22;99913.68;1437246;90;21723;-80
2023/06/17 10:04:25;;;;;;;2.70;1.60;;;;;;;19.39;85.78;99916.27;1510493;90;21452;-80
2023/06/17 10:06:53;;;;;;;3.55;2.40;;;;;;;19.32;86.58;99919.51;1368282;91;21612;-84
2023/06/17 10:09:19;;;;;;;1.67;1.57;;;;;;;19.29;86.58;99921.28;1417949;91;21400;-84
2023/06/17 10:11:50;;;;;;;2.10;1.90;;;;;;;19.34;87.38;99926.02;1432689;91;21629;-84
2023/06/17 10:14:21;;;;;;;5.62;1.65;;;;;;;19.24;85.75;99926.47;1431324;91;21556;-81
2023/06/17 10:16:49;;;;;;;1.65;1.55;;;;;;;19.24;85.75;99926.47;1407456;91;21555;-83
2023/06/17 10:19:20;;;;;;;1.90;1.65;;;;;;;19.21;85.15;99938.98;1433759;91;21574;-83
2023/06/17 10:21:50;;;;;;;1.32;1.20;;;;;;;19.13;86.49;99936.05;1434240;91;21644;-85
2023/06/17 10:24:17;;;;;;;6.78;1.32;;;;;;;19.17;86.59;99928.39;1429421;90;21459;-84
2023/06/17 10:26:43;;;;;;;5.00;1.50;;;;;;;19.27;86.43;99923.35;1413540;91;22862;-82
2023/06/17 10:29:10;;;;;;;2.05;1.80;;;;;;;19.43;88.18;99911.28;1416325;91;21459;-82
2023/06/17 10:31:39;;;;;;;4.17;1.70;;;;;;;19.60;86.87;99919.63;1438452;91;21511;-84
2023/06/17 10:34:10;;;;;;;3.90;1.40;;;;;;;19.72;86.07;99921.92;1430813;89;21725;-84
2023/06/17 10:36:37;;;;;;;3.12;1.60;;;;;;;19.82;85.96;99923.59;1436739;91;21533;-83
2023/06/17 10:39:07;;;;;;;1.62;1.50;;;;;;;19.82;85.06;99928.12;1436240;91;21526;-81
2023/06/17 10:41:46;;;;;;;;;;;;;;;19.76;83.93;99928.48;1410698;91;21429;-79
2023/06/17 10:44:41;;;;;;;2.27;1.30;;;;;;;19.79;84.28;99932.59;1434025;90;20382;-82
2023/06/17 10:47:22;;;;;;;1.40;1.22;;;;;;;19.78;85.25;99929.09;1438713;91;21474;-80
2023/06/17 10:49:49;;;;;;;1.72;1.32;;;;;;;19.78;83.69;99938.48;1432119;91;21659;-82
2023/06/17 10:52:17;;;;;;;2.42;1.45;;;;;;;19.96;85.01;99931.52;1408941;91;22295;-83
2023/06/17 10:54:54;;;;;;;2.02;1.45;;;;;;;20.08;84.45;99935.11;1432206;91;21480;-81
2023/06/17 10:57:32;;;;;;;1.98;1.30;;;;;;;20.32;84.01;99932.09;1440023;91;21557;-83
2023/06/17 11:00:08;;;;;;;3.15;1.30;;;;;;;20.41;83.67;99933.95;1435866;90;22454;-83
2023/06/17 11:02:38;;;;;;;1.95;1.27;;;;;;;20.47;81.80;99935.74;1436201;91;21467;-82
2023/06/17 11:05:06;;;;;;;1.82;1.50;;;;;;;20.63;81.90;99932.48;1437665;90;22295;-83
2023/06/17 11:07:33;;;;;;;1.47;1.37;;;;;;;20.83;80.62;99931.39;1440531;90;21451;-81
2023/06/17 11:09:59;;;;;;;1.95;1.52;;;;;;;20.85;81.29;99928.78;1399606;91;21539;-83
2023/06/17 11:12:26;;;;;;;1.90;1.35;;;;;;;21.01;81.35;99923.30;1439319;90;22383;-83
2023/06/17 11:14:53;;;;;;;1.85;1.47;;;;;;;21.15;80.56;99932.83;1415141;91;21481;-79
2023/06/17 11:17:20;;;;;;;2.35;1.60;;;;;;;21.20;81.18;99930.78;1437729;90;22356;-83
2023/06/17 11:19:47;;;;;;;1.67;1.42;;;;;;;21.17;81.16;99925.33;1433764;91;21407;-80
2023/06/17 11:22:13;;;;;;;2.98;1.50;;;;;;;21.34;81.13;99924.15;1435269;90;21631;-82
2023/06/17 11:24:40;;;;;;;1.92;1.72;;;;;;;21.42;79.81;99924.38;1433380;91;21445;-83
2023/06/17 11:27:06;;;;;;;2.10;1.70;;;;;;;21.36;79.47;99924.78;1435396;90;21474;-84
2023/06/17 11:29:33;;;;;;;2.52;1.70;;;;;;;21.38;80.48;99931.30;1434706;91;22556;-83
2023/06/17 11:32:01;;;;;;;3.83;1.50;;;;;;;21.46;79.73;99930.94;1429636;90;21423;-82
2023/06/17 11:34:31;;;;;;;3.27;1.92;;;;;;;21.36;79.57;99925.28;1431645;89;22347;-84
2023/06/17 11:36:55;;;;;;;2.37;1.42;;;;;;;21.42;80.36;99931.11;1432374;91;21621;-85
2023/06/17 11:39:30;;;;;;;2.45;1.52;;;;;;;21.60;78.85;99945.83;1433422;90;22871;-82
2023/06/17 11:42:03;;;;;;;2.70;1.87;;;;;;;21.39;78.34;99933.73;1437606;90;21495;-82
2023/06/17 11:44:32;;;;;;;2.15;1.90;;;;;;;21.63;79.81;99927.05;1440186;91;21430;-85
2023/06/17 11:47:09;;;;;;;2.95;1.52;;;;;;;21.74;80.15;99929.47;1437121;91;21786;-85
2023/06/17 11:49:37;;;;;;;1.45;1.15;;;;;;;21.99;79.41;99930.06;1431597;90;21452;-85
2023/06/17 11:52:11;;;;;;;2.15;1.30;;;;;;;22.12;76.51;99930.88;1433111;91;21534;-83
2023/06/17 11:54:35;;;;;;;1.87;1.55;;;;;;;22.29;77.24;99921.85;1360002;91;21415;-83
2023/06/17 11:57:02;;;;;;;1.67;1.42;;;;;;;22.02;75.39;99922.86;1399804;91;21475;-84
2023/06/17 11:59:31;;;;;;;2.60;1.70;;;;;;;21.84;74.17;99913.56;1430408;90;21452;-82
2023/06/17 12:01:58;;;;;;;8.05;2.83;;;;;;;21.93;75.61;99909.45;1431388;90;21644;-82
2023/06/17 12:04:24;;;;;;;2.08;1.67;;;;;;;21.74;74.64;99916.00;1431391;91;21452;-84
2023/06/17 12:06:50;;;;;;;1.60;1.50;;;;;;;21.67;77.26;99915.30;1435441;91;21437;-84
2023/06/17 12:09:19;;;;;;;4.55;1.30;;;;;;;21.77;75.49;99920.92;1434344;91;21705;-83
2023/06/17 12:11:45;;;;;;;3.77;1.87;;;;;;;21.73;75.15;99927.84;1433265;90;21496;-82
2023/06/17 12:14:13;;;;;;;2.62;1.52;;;;;;;21.57;75.22;99922.06;1433972;90;22355;-84
2023/06/17 12:16:43;;;;;;;4.15;1.40;;;;;;;21.81;76.11;99925.62;1432679;90;21466;-83
2023/06/17 12:19:22;;;;;;;1.35;1.25;;;;;;;21.75;71.79;99929.75;1439390;90;21459;-84
2023/06/17 12:21:48;;;;;;;2.58;1.60;;;;;;;21.77;73.24;99927.65;1433318;90;21672;-82
2023/06/17 12:24:16;;;;;;;2.22;1.40;;;;;;;21.63;70.21;99931.90;1431394;90;21452;-84
2023/06/17 12:26:43;;;;;;;4.20;1.55;;;;;;;21.61;72.29;99929.98;1440383;91;22202;-83
2023/06/17 12:29:09;;;;;;;2.58;1.42;;;;;;;21.68;73.01;99926.36;1435641;90;21520;-83
2023/06/17 12:31:36;;;;;;;2.58;1.65;;;;;;;21.78;73.46;99930.63;1417125;91;21452;-84
2023/06/17 12:34:06;;;;;;;2.08;1.70;;;;;;;21.88;73.32;99930.88;1434211;89;21449;-84
2023/06/17 12:36:33;;;;;;;5.37;2.83;;;;;;;22.03;73.71;99922.33;1453983;90;21642;-84
2023/06/17 12:39:03;;;;;;;3.98;1.60;;;;;;;22.23;73.01;99924.68;1451081;90;21479;-83
2023/06/17 12:41:31;;;;;;;2.72;2.10;;;;;;;22.38;72.16;99919.61;1452644;90;21685;-84
2023/06/17 12:43:57;;;;;;;1.95;1.75;;;;;;;22.29;72.53;99913.77;1434429;90;21627;-84
2023/06/17 12:46:24;;;;;;;2.30;2.08;;;;;;;22.34;72.56;99917.64;1461672;90;21567;-83
2023/06/17 12:48:50;;;;;;;3.02;1.87;;;;;;;22.31;71.67;99916.23;1455206;90;21575;-83
2023/06/17 12:51:16;;;;;;;2.47;1.55;;;;;;;22.44;71.25;99910.59;1445039;90;21530;-85
2023/06/17 12:53:43;;;;;;;1.80;1.45;;;;;;;22.52;70.38;99912.89;1451969;90;21708;-82
2023/06/17 12:56:09;;;;;;;1.77;1.60;;;;;;;22.44;68.42;99909.25;1451885;90;22301;-82
2023/06/17 12:58:36;;;;;;;5.25;1.75;;;;;;;22.36;68.66;99910.96;1443802;90;21530;-84
2023/06/17 13:01:02;;;;;;;2.00;1.42;;;;;;;22.28;69.09;99909.97;1452729;90;21612;-85
2023/06/17 13:03:28;;;;;;;3.95;1.57;;;;;;;22.36;68.96;99908.27;1449692;90;21479;-82
2023/06/17 13:05:54;;;;;;;1.80;1.45;;;;;;;22.68;71.53;99905.94;1457335;90;21568;-83
2023/06/17 13:08:20;;;;;;;1.40;1.30;;;;;;;23.15;69.26;99896.84;1451564;90;21538;-82
2023/06/17 13:10:47;;;;;;;4.15;1.37;;;;;;;23.49;68.44;99904.98;1446755;90;22588;-83
2023/06/17 13:13:13;;;;;;;1.45;1.10;;;;;;;23.93;67.89;99901.09;1457156;90;21479;-84
2023/06/17 13:15:41;;;;;;;1.47;1.30;;;;;;;24.03;64.77;99891.78;1454500;90;21538;-83
2023/06/17 13:18:08;;;;;;;1.85;1.17;;;;;;;24.18;65.36;99889.28;1449540;90;21597;-85
2023/06/17 13:20:35;;;;;;;1.50;1.40;;;;;;;24.24;64.34;99888.81;1440829;90;22949;-82
2023/06/17 13:23:01;;;;;;;1.92;1.70;;;;;;;23.47;64.22;99888.20;1455566;90;21516;-85
2023/06/17 13:25:27;;;;;;;1.42;1.32;;;;;;;23.24;66.48;99895.92;1448577;90;21652;-84
2023/06/17 13:27:54;;;;;;;3.30;1.60;;;;;;;23.15;66.89;99897.66;1444809;90;22330;-86
2023/06/17 13:30:20;;;;;;;2.92;1.40;;;;;;;23.25;66.83;99897.55;1453006;90;21597;-83
2023/06/17 13:32:46;;;;;;;1.47;1.37;;;;;;;23.51;66.37;99900.16;1440537;90;21494;-83
2023/06/17 13:35:13;;;;;;;1.60;1.25;;;;;;;24.08;66.11;99899.94;1460557;89;22388;-84
2023/06/17 13:37:39;;;;;;;1.45;1.27;;;;;;;24.43;62.73;99899.64;1459414;89;21596;-83
2023/06/17 13:40:07;;;;;;;1.72;1.47;;;;;;;24.46;62.78;99905.09;1458836;89;21570;-82
2023/06/17 13:42:34;;;;;;;1.65;1.40;;;;;;;24.47;62.81;99900.77;1449811;89;21439;-84
2023/06/17 13:45:00;;;;;;;1.27;1.17;;;;;;;24.47;63.01;99901.30;1437604;89;22403;-82
2023/06/17 13:47:26;;;;;;;1.60;1.50;;;;;;;24.71;62.65;99887.77;1461773;89;21759;-85
2023/06/17 13:49:53;;;;;;;3.35;1.20;;;;;;;24.88;58.27;99886.87;1458582;89;21942;-82
2023/06/17 13:52:19;;;;;;;2.25;1.50;;;;;;;25.33;57.92;99891.12;1461686;89;21508;-84
2023/06/17 13:54:45;;;;;;;3.62;1.20;;;;;;;25.78;50.52;99893.37;1453659;89;22329;-85
2023/06/17 13:57:13;;;;;;;1.75;1.50;;;;;;;26.24;48.85;99884.69;1457950;89;21501;-81
2023/06/17 13:59:39;;;;;;;11.33;1.47;;;;;;;26.23;48.85;99892.55;1435002;89;21622;-84
2023/06/17 14:02:06;;;;;;;1.95;1.27;;;;;;;26.35;47.92;99882.30;1462817;89;22491;-84
2023/06/17 14:04:32;;;;;;;6.97;1.52;;;;;;;26.39;48.79;99892.91;1456688;89;21420;-85
2023/06/17 14:06:59;;;;;;;1.50;1.40;;;;;;;26.44;48.93;99897.52;1460759;89;21670;-84
2023/06/17 14:09:25;;;;;;;1.20;1.10;;;;;;;26.19;49.76;99890.92;1460415;89;22337;-83
2023/06/17 14:11:54;;;;;;;4.00;1.35;;;;;;;25.74;48.24;99896.84;1441516;89;22328;-84
2023/06/17 14:14:20;;;;;;;1.47;1.37;;;;;;;25.40;50.18;99895.23;1436246;89;21501;-85
2023/06/17 14:16:46;;;;;;;1.60;1.30;;;;;;;24.93;51.10;99895.86;1458366;89;21692;-83
2023/06/17 14:19:12;;;;;;;1.72;1.30;;;;;;;24.53;52.75;99898.94;1438648;89;22285;-84
2023/06/17 14:21:39;;;;;;;1.52;1.42;;;;;;;24.23;53.81;99902.06;1461446;89;21434;-83
2023/06/17 14:24:11;;;;;;;3.95;1.27;;;;;;;24.03;54.33;99899.36;1455921;89;21589;-84
2023/06/17 14:26:40;;;;;;;1.07;0.98;;;;;;;23.76;53.94;99898.41;1465689;89;21523;-83
2023/06/17 14:29:08;;;;;;;1.77;1.42;;;;;;;23.63;55.20;99905.76;1466873;89;21464;-83
2023/06/17 14:31:36;;;;;;;1.40;1.22;;;;;;;23.62;56.00;99910.88;1457603;89;21471;-84
2023/06/17 14:34:03;;;;;;;1.30;1.20;;;;;;;23.63;56.25;99915.21;1458049;89;22433;-84
2023/06/17 14:36:30;;;;;;;3.20;0.93;;;;;;;23.63;55.94;99909.81;1457774;89;21552;-85
2023/06/17 14:39:00;;;;;;;1.27;1.17;;;;;;;23.47;56.45;99916.55;1455447;89;21589;-83
2023/06/17 14:41:26;;;;;;;2.80;1.40;;;;;;;23.45;57.34;99909.22;1450441;89;21466;-84
2023/06/17 14:43:53;;;;;;;1.55;0.90;;;;;;;23.89;56.99;99919.69;1458874;89;21560;-83
2023/06/17 14:46:19;;;;;;;1.65;1.30;;;;;;;24.52;54.71;99910.30;1457075;89;22373;-83
2023/06/17 14:48:45;;;;;;;1.45;1.35;;;;;;;24.65;51.69;99905.02;1436096;89;21553;-85
2023/06/17 14:51:12;;;;;;;1.37;1.25;;;;;;;24.78;52.94;99908.43;1455438;89;22479;-84
2023/06/17 14:53:41;;;;;;;1.77;1.10;;;;;;;24.44;52.97;99909.92;1455014;89;21508;-83
2023/06/17 14:56:30;;;;;;;1.55;1.12;;;;;;;24.30;54.64;99903.48;1457389;89;21486;-84
2023/06/17 14:58:59;;;;;;;1.65;1.20;;;;;;;24.01;54.90;99907.42;1445193;89;21693;-82
2023/06/17 15:01:31;;;;;;;3.52;1.12;;;;;;;23.52;56.02;99906.66;1459671;89;21545;-81
2023/06/17 15:03:58;;;;;;;1.65;1.15;;;;;;;23.32;57.67;99903.09;1458528;88;22499;-83
2023/06/17 15:06:25;;;;;;;1.60;1.37;;;;;;;22.91;57.74;99907.73;1458831;89;21501;-83
2023/06/17 15:09:24;;;;;;;;;;;;;;;;;;;;;
2023/06/17 15:11:40;;;;;;;6.00;1.45;;;;;;;22.49;60.03;99916.07;1447668;89;21648;-84
2023/06/17 15:14:06;;;;;;;5.60;1.15;;;;;;;22.38;60.21;99912.87;1456013;89;21456;-81
2023/06/17 15:16:32;;;;;;;1.70;1.12;;;;;;;22.40;61.21;99922.08;1462838;89;21485;-83
2023/06/17 15:18:58;;;;;;;1.87;1.20;;;;;;;22.36;61.59;99931.71;1465431;89;21455;-83
2023/06/17 15:21:24;;;;;;;1.52;1.30;;;;;;;22.38;62.40;99934.44;1438838;89;22365;-83
2023/06/17 15:23:50;;;;;;;2.47;1.45;;;;;;;22.79;61.46;99925.85;1452629;89;21486;-84
2023/06/17 15:26:17;;;;;;;1.32;1.07;;;;;;;22.77;61.07;99919.05;1458175;89;21434;-84
2023/06/17 15:28:43;;;;;;;3.37;1.57;;;;;;;22.75;61.10;99921.98;1455685;89;21644;-83
2023/06/17 15:31:09;;;;;;;2.67;1.52;;;;;;;22.53;60.92;99933.43;1458857;89;22366;-84
2023/06/17 15:33:36;;;;;;;2.05;1.25;;;;;;;22.47;60.88;99933.03;1459813;89;21494;-84
2023/06/17 15:36:04;;;;;;;1.07;0.98;;;;;;;22.38;61.99;99933.09;1465410;89;21545;-85
2023/06/17 15:38:30;;;;;;;7.10;1.57;;;;;;;22.36;62.08;99939.80;1448063;89;21412;-82
2023/06/17 15:40:57;;;;;;;1.37;1.27;;;;;;;22.33;62.26;99933.00;1457959;89;21361;-83
2023/06/17 15:43:24;;;;;;;3.83;1.20;;;;;;;22.41;62.57;99940.73;1432565;89;21524;-82
2023/06/17 15:45:51;;;;;;;4.05;1.72;;;;;;;22.47;62.20;99938.94;1456972;89;21442;-84
2023/06/17 15:48:17;;;;;;;1.47;1.22;;;;;;;22.46;61.84;99947.55;1457189;89;21585;-84
2023/06/17 15:50:43;;;;;;;1.42;1.32;;;;;;;22.38;62.14;99947.91;1449334;89;21567;-83
2023/06/17 15:53:09;;;;;;;1.98;1.67;;;;;;;22.19;61.96;99944.56;1437495;89;21538;-84
2023/06/17 15:55:36;;;;;;;5.37;1.85;;;;;;;22.17;62.64;99939.92;1462473;89;21456;-84
2023/06/17 15:58:03;;;;;;;4.50;1.40;;;;;;;22.26;63.09;99938.50;1455367;89;21553;-83
2023/06/17 16:00:29;;;;;;;3.60;1.45;;;;;;;22.21;63.64;99943.80;1460914;89;22564;-84
2023/06/17 16:02:55;;;;;;;1.12;1.02;;;;;;;22.18;63.41;99943.43;1429011;89;21641;-84
2023/06/17 16:05:21;;;;;;;1.22;1.12;;;;;;;22.07;63.25;99949.92;1458167;89;21420;-85
2023/06/17 16:07:47;;;;;;;3.30;1.50;;;;;;;22.02;63.60;99951.14;1457890;89;21405;-84
2023/06/17 16:10:14;;;;;;;2.20;1.20;;;;;;;22.02;64.61;99945.76;1455858;89;21485;-82
2023/06/17 16:12:40;;;;;;;5.65;1.47;;;;;;;21.98;64.39;99939.71;1458602;89;21516;-83
2023/06/17 16:15:07;;;;;;;1.60;1.50;;;;;;;21.87;64.15;99938.68;1457247;89;21636;-83
2023/06/17 16:17:35;;;;;;;1.57;1.10;;;;;;;21.80;64.44;99931.22;1437966;89;21494;-83
2023/06/17 16:20:01;;;;;;;1.50;1.40;;;;;;;21.69;64.85;99937.41;1465681;89;21464;-82
2023/06/17 16:22:27;;;;;;;1.70;1.55;;;;;;;21.49;65.19;99937.23;1460836;89;21685;-83
2023/06/17 16:24:53;;;;;;;1.60;1.10;;;;;;;21.41;65.37;99930.83;1439558;89;22293;-84
2023/06/17 16:27:20;;;;;;;1.30;1.20;;;;;;;21.23;65.35;99936.23;1435069;89;21449;-83
2023/06/17 16:29:46;;;;;;;3.50;1.80;;;;;;;21.13;65.62;99941.64;1460943;89;22111;-84
2023/06/17 16:32:12;;;;;;;2.98;1.82;;;;;;;21.06;66.08;99936.90;1458446;89;21412;-83
2023/06/17 16:34:38;;;;;;;1.95;1.80;;;;;;;21.00;67.72;99941.00;1454683;89;22440;-83
2023/06/17 16:37:05;;;;;;;1.80;1.70;;;;;;;20.91;66.62;99944.53;1457812;89;21670;-83
2023/06/17 16:39:31;;;;;;;7.42;1.67;;;;;;;20.88;67.13;99943.11;1434663;91;21565;-84
2023/06/17 16:41:58;;;;;;;1.47;1.37;;;;;;;20.87;67.63;99958.97;1453636;89;21448;-83
2023/06/17 16:44:24;;;;;;;1.22;1.10;;;;;;;20.78;65.46;99956.83;1437491;89;21456;-84
2023/06/17 16:46:50;;;;;;;1.30;1.20;;;;;;;20.69;65.89;99963.03;1449849;89;21626;-84
2023/06/17 16:49:17;;;;;;;3.25;1.50;;;;;;;20.69;65.89;99963.03;1458522;89;21449;-84
2023/06/17 16:51:44;;;;;;;3.10;1.60;;;;;;;20.64;66.56;99966.38;1455607;89;21642;-83
2023/06/17 16:54:11;;;;;;;1.95;1.80;;;;;;;20.64;66.56;99966.38;1460928;89;21404;-84
2023/06/17 16:56:37;;;;;;;3.83;1.52;;;;;;;20.59;66.24;99965.41;1432694;91;21976;-82
2023/06/17 16:59:04;;;;;;;3.40;1.52;;;;;;;20.49;66.34;99969.42;1460868;89;21456;-82
2023/06/17 17:01:30;;;;;;;1.50;1.40;;;;;;;20.42;66.69;99973.22;1457546;89;21456;-83
2023/06/17 17:04:02;;;;;;;2.25;1.50;;;;;;;20.35;66.96;99984.57;1453679;89;22070;-81
2023/06/17 17:06:28;;;;;;;1.90;1.80;;;;;;;20.25;67.70;99986.41;1448333;89;21618;-84
2023/06/17 17:08:54;;;;;;;2.92;1.72;;;;;;;20.15;67.79;99992.30;1458114;89;21479;-85
2023/06/17 17:11:21;;;;;;;2.12;1.70;;;;;;;20.08;68.09;99992.05;1455764;89;21472;-81
2023/06/17 17:13:47;;;;;;;6.70;1.77;;;;;;;20.02;68.35;99996.43;1458135;89;21507;-82
2023/06/17 17:16:13;;;;;;;3.70;1.70;;;;;;;20.01;68.40;99997.48;1466657;89;21634;-84
2023/06/17 17:18:39;;;;;;;2.02;1.82;;;;;;;19.97;68.94;99998.45;1455996;89;22915;-84
2023/06/17 17:21:05;;;;;;;6.75;1.98;;;;;;;19.95;69.12;100005.08;1459228;89;21509;-84
2023/06/17 17:23:32;;;;;;;2.12;1.65;;;;;;;19.91;69.50;100003.85;1462791;89;21605;-84
2023/06/17 17:25:58;;;;;;;2.15;1.95;;;;;;;19.84;69.74;99998.02;1465419;89;21491;-82
2023/06/17 17:28:24;;;;;;;5.78;1.77;;;;;;;19.80;69.73;100001.38;1453831;89;22463;-83
2023/06/17 17:30:51;;;;;;;5.55;1.98;;;;;;;19.77;70.27;100004.50;1439486;89;21640;-84
2023/06/17 17:33:19;;;;;;;1.65;1.47;;;;;;;19.71;71.11;100003.52;1457758;89;21464;-84
2023/06/17 17:35:45;;;;;;;4.83;1.92;;;;;;;19.66;71.00;100006.55;1455691;89;21530;-82
2023/06/17 17:38:11;;;;;;;2.37;1.80;;;;;;;19.58;71.00;100003.56;1457798;89;21603;-84
2023/06/17 17:40:38;;;;;;;2.95;1.80;;;;;;;19.55;71.34;100011.52;1449118;89;21479;-84
2023/06/17 17:43:04;;;;;;;6.45;1.90;;;;;;;19.51;72.21;100015.69;1453671;89;22418;-82
2023/06/17 17:45:30;;;;;;;2.15;1.27;;;;;;;19.52;72.46;100019.19;1428225;91;21460;-84
2023/06/17 17:47:56;;;;;;;1.87;1.72;;;;;;;19.51;72.10;100018.38;1460920;89;21478;-83
2023/06/17 17:50:23;;;;;;;8.83;1.62;;;;;;;19.50;72.10;100022.60;1456899;89;21413;-84
2023/06/17 17:52:50;;;;;;;2.72;1.75;;;;;;;19.48;71.89;100018.80;1461278;89;21700;-82
2023/06/17 17:55:16;;;;;;;3.83;1.90;;;;;;;19.44;71.99;100017.58;1458211;89;21449;-82
2023/06/17 17:57:42;;;;;;;1.70;1.60;;;;;;;19.39;72.09;100018.73;1456591;89;22337;-82
2023/06/17 18:00:09;;;;;;;3.55;1.92;;;;;;;19.33;72.44;100020.94;1457544;89;21478;-83
2023/06/17 18:02:35;;;;;;;3.83;1.80;;;;;;;19.25;73.02;100024.71;1459180;89;22336;-82
2023/06/17 18:05:01;;;;;;;8.88;1.95;;;;;;;19.19;73.64;100029.59;1455657;89;21413;-83
2023/06/17 18:07:28;;;;;;;5.15;1.82;;;;;;;19.17;74.35;100030.32;1461458;89;21463;-83
2023/06/17 18:09:54;;;;;;;2.58;2.25;;;;;;;19.16;74.95;100029.50;1455167;89;22240;-83
2023/06/17 18:12:20;;;;;;;3.77;2.30;;;;;;;19.16;75.41;100038.04;1458576;89;21590;-82
2023/06/17 18:14:46;;;;;;;8.40;1.90;;;;;;;19.15;76.27;100048.48;1461730;89;21561;-82
2023/06/17 18:17:12;;;;;;;2.75;2.50;;;;;;;19.11;76.56;100051.30;1464081;89;21369;-84
2023/06/17 18:19:39;;;;;;;5.47;1.77;;;;;;;19.09;76.35;100058.20;1453525;89;21551;-83
2023/06/17 18:22:05;;;;;;;5.75;2.00;;;;;;;19.05;76.71;100061.53;1459003;89;21420;-83
2023/06/17 18:24:32;;;;;;;2.70;2.10;;;;;;;19.00;76.54;100058.66;1452678;89;21630;-83
2023/06/17 18:26:59;;;;;;;4.30;2.60;;;;;;;18.93;76.91;100064.02;1465256;89;21502;-84
2023/06/17 18:29:26;;;;;;;2.30;2.10;;;;;;;18.87;77.03;100060.84;1459522;89;22263;-83
2023/06/17 18:31:53;;;;;;;5.75;1.98;;;;;;;18.82;77.44;100062.84;1453856;89;21619;-84
2023/06/17 18:34:21;;;;;;;5.37;2.05;;;;;;;18.78;77.48;100061.59;1438586;89;21442;-84
2023/06/17 18:36:48;;;;;;;5.85;1.77;;;;;;;18.75;77.68;100064.70;1423145;91;21570;-84
2023/06/17 18:39:15;;;;;;;7.50;2.45;;;;;;;18.73;78.47;100062.73;1429267;91;22481;-84
2023/06/17 18:41:42;;;;;;;2.80;1.92;;;;;;;18.71;79.25;100070.15;1438255;91;21452;-83
2023/06/17 18:44:13;;;;;;;2.15;1.95;;;;;;;18.66;79.49;100068.61;1435604;91;22341;-83
2023/06/17 18:46:40;;;;;;;;;;;;;;;18.64;79.48;100070.66;1412237;91;22533;-84
2023/06/17 18:49:11;;;;;;;4.80;2.27;;;;;;;18.60;79.96;100074.80;1433203;91;20271;-83
2023/06/17 18:51:39;;;;;;;3.45;2.37;;;;;;;18.57;79.92;100080.58;1436580;91;21519;-83
2023/06/17 18:54:06;;;;;;;3.75;2.27;;;;;;;18.54;80.29;100087.70;1427791;91;21504;-84
2023/06/17 18:56:33;;;;;;;5.03;2.05;;;;;;;18.51;80.54;100096.16;1405567;91;22443;-83
2023/06/17 18:59:00;;;;;;;2.98;2.00;;;;;;;18.48;80.80;100099.55;1435162;91;21445;-83
2023/06/17 19:01:27;;;;;;;2.52;2.15;;;;;;;18.48;81.39;100102.75;1414006;91;21466;-83
2023/06/17 19:03:55;;;;;;;3.92;2.10;;;;;;;18.46;82.66;100096.77;1438699;91;21903;-83
2023/06/17 19:06:23;;;;;;;7.45;2.87;;;;;;;18.44;83.28;100098.33;1428981;91;22259;-84
2023/06/17 19:08:50;;;;;;;4.45;2.05;;;;;;;18.47;84.13;100099.25;1433100;91;21517;-83
2023/06/17 19:11:17;;;;;;;3.42;2.67;;;;;;;18.47;84.79;100103.27;1434583;91;21555;-84
2023/06/17 19:13:45;;;;;;;3.52;2.50;;;;;;;18.44;85.25;100106.37;1437285;91;22391;-82
2023/06/17 19:16:13;;;;;;;2.52;1.80;;;;;;;18.39;85.80;100103.48;1428968;91;21474;-83
2023/06/17 19:18:40;;;;;;;2.50;2.10;;;;;;;18.35;86.00;100104.90;1430728;91;21607;-85
2023/06/17 19:21:09;;;;;;;2.80;2.20;;;;;;;18.32;86.88;100105.31;1415499;91;22407;-81
2023/06/17 19:23:37;;;;;;;2.55;2.33;;;;;;;18.29;87.65;100099.55;1429828;91;21503;-82
2023/06/17 19:26:04;;;;;;;3.00;2.75;;;;;;;18.26;88.10;100103.47;1436892;91;21467;-84
2023/06/17 19:28:31;;;;;;;4.17;3.33;;;;;;;18.24;88.60;100109.53;1426649;91;21669;-83
2023/06/17 19:30:58;;;;;;;7.63;3.53;;;;;;;18.21;88.93;100103.25;1428542;91;21444;-84
2023/06/17 19:33:25;;;;;;;4.42;2.90;;;;;;;18.19;89.61;100105.33;1413694;91;21554;-84
2023/06/17 19:35:53;;;;;;;5.00;2.80;;;;;;;18.18;90.55;100103.66;1430167;91;21452;-83
2023/06/17 19:38:20;;;;;;;4.30;3.22;;;;;;;18.17;91.14;100107.38;1432160;89;21548;-83
2023/06/17 19:40:47;;;;;;;4.58;2.77;;;;;;;18.14;91.52;100097.90;1434517;91;21711;-84
2023/06/17 19:43:19;;;;;;;6.20;3.37;;;;;;;18.13;92.89;100098.94;1429459;90;21532;-84
2023/06/17 19:45:45;;;;;;;4.20;3.80;;;;;;;18.09;93.42;100092.33;1434919;91;21489;-81
2023/06/17 19:48:12;;;;;;;9.00;4.42;;;;;;;18.07;94.19;100097.57;1433411;90;21489;-83
2023/06/17 19:50:40;;;;;;;7.67;4.60;;;;;;;18.03;94.45;100094.48;1431738;91;21409;-83
2023/06/17 19:53:07;;;;;;;4.83;4.00;;;;;;;18.03;94.59;100093.15;1434281;91;22502;-83
2023/06/17 19:55:35;;;;;;;5.47;4.17;;;;;;;18.02;94.25;100091.51;1428267;90;21438;-84
2023/06/17 19:58:02;;;;;;;9.20;4.77;;;;;;;18.00;94.12;100089.02;1426612;91;21438;-84
2023/06/17 20:00:29;;;;;;;4.60;4.20;;;;;;;18.00;93.91;100097.05;1421565;91;21474;-84
2023/06/17 20:02:56;;;;;;;8.60;5.07;;;;;;;18.01;94.12;100102.73;1441343;90;21393;-84
2023/06/17 20:05:23;;;;;;;5.77;5.10;;;;;;;18.02;94.02;100099.55;1434122;90;22840;-82
2023/06/17 20:07:51;;;;;;;4.97;4.37;;;;;;;18.00;94.06;100091.70;1430698;90;21416;-84
2023/06/17 20:10:18;;;;;;;5.43;4.93;;;;;;;18.00;94.10;100095.72;1436276;90;21474;-84